Terminal Aerodrome Forecast
Issued by NWS

Home | Current Version | Previous Version | Text Only | Print | Product List | Glossary On
Versions: 1 2 3 4 5 6 7 8 9 10 11 12 13 14
000
FTUS45 KGGW 151720
TAFOLF
TAF
KOLF 151720Z 1518/1618 26009KT P6SM BKN120
     FM160600 29009KT P6SM OVC030
     FM161100 30007KT P6SM BKN035
     FM161300 29007KT P6SM SCT150=

USA.gov is the U.S. government's official web portal to all federal, state and local government web resources and services.